Time;durP1;ratioP1;P1;durP2;ratioP2;P2;SDS_P1;SDS_P2;PMS_P1;PMS_P2;Temp;Humidity;BMP_temperature;BMP_pressure;BME280_temperature;BME280_humidity;BME280_pressure;Samples;Min_cycle;Max_cycle;Signal;HPM_P1;HPM_P2
2021/01/17 00:01:53;;;;;;;;;;;;;;;30.67;17.18;100494.50;5096568;28;763;-30
2021/01/17 00:04:18;;;;;;;;;;;;;;;30.53;17.35;100480.16;5096832;28;771;-30
2021/01/17 00:06:43;;;;;;;;;;;;;;;30.52;17.42;100492.03;5096744;28;997;-30
2021/01/17 00:09:09;;;;;;;;;;;;;;;30.80;17.41;100507.22;5096454;28;746;-28
2021/01/17 00:11:34;;;;;;;;;;;;;;;30.99;17.06;100488.38;5095990;28;541;-31
2021/01/17 00:13:59;;;;;;;;;;;;;;;31.06;16.84;100504.63;5097046;28;838;-32
2021/01/17 00:16:24;;;;;;;;;;;;;;;30.99;17.05;100515.53;5096411;28;1909;-27
2021/01/17 00:18:50;;;;;;;;;;;;;;;31.09;16.88;100528.66;5096412;28;1185;-32
2021/01/17 00:21:15;;;;;;;;;;;;;;;31.47;16.52;100529.72;5096550;28;779;-35
2021/01/17 00:23:40;;;;;;;;;;;;;;;31.42;16.60;100532.28;5079255;28;930;-28
2021/01/17 00:26:06;;;;;;;;;;;;;;;31.37;16.65;100536.47;5075780;28;1279;-29
2021/01/17 00:28:31;;;;;;;;;;;;;;;31.35;16.55;100538.56;5076273;28;818;-33
2021/01/17 00:30:56;;;;;;;;;;;;;;;30.62;17.06;100529.59;5076305;28;843;-35
2021/01/17 00:33:21;;;;;;;;;;;;;;;29.81;17.98;100511.50;5076157;28;732;-29
2021/01/17 00:35:47;;;;;;;;;;;;;;;30.51;17.32;100556.34;5076274;28;791;-36
2021/01/17 00:38:12;;;;;;;;;;;;;;;30.57;17.26;100564.69;5089247;28;1975;-32
2021/01/17 00:40:37;;;;;;;;;;;;;;;30.22;16.86;100576.63;5096562;28;815;-34
2021/01/17 00:43:02;;;;;;;;;;;;;;;29.46;18.29;100559.34;5095915;28;759;-29
2021/01/17 00:45:28;;;;;;;;;;;;;;;29.75;18.11;100563.81;5096848;28;826;-28
2021/01/17 00:47:53;;;;;;;;;;;;;;;30.26;17.91;100570.56;5099965;28;815;-30
2021/01/17 00:50:19;;;;;;;;;;;;;;;30.41;17.31;100572.25;5100013;28;843;-28
2021/01/17 00:52:44;;;;;;;;;;;;;;;30.37;17.37;100569.09;5099663;28;934;-31
2021/01/17 00:55:10;;;;;;;;;;;;;;;30.38;17.51;100562.63;5100403;28;845;-32
2021/01/17 00:57:35;;;;;;;;;;;;;;;30.42;17.45;100571.19;5099713;28;1913;-35
2021/01/17 01:00:01;;;;;;;;;;;;;;;30.54;17.31;100569.53;5100015;28;778;-30
2021/01/17 01:02:26;;;;;;;;;;;;;;;30.58;17.40;100575.34;5099888;28;874;-32
2021/01/17 01:04:52;;;;;;;;;;;;;;;30.85;17.23;100569.88;5099093;28;788;-29
2021/01/17 01:07:17;;;;;;;;;;;;;;;30.94;17.14;100566.94;5099296;28;1040;-28
2021/01/17 01:09:42;;;;;;;;;;;;;;;30.89;17.20;100565.72;5099884;28;748;-32
2021/01/17 01:12:07;;;;;;;;;;;;;;;31.00;17.05;100561.50;5099227;28;775;-36
2021/01/17 01:14:33;;;;;;;;;;;;;;;31.18;16.80;100568.09;5099824;28;735;-29
2021/01/17 01:16:58;;;;;;;;;;;;;;;31.05;16.78;100569.00;5100124;28;1917;-36
2021/01/17 01:19:23;;;;;;;;;;;;;;;31.21;16.70;100573.13;5099139;28;784;-30
2021/01/17 01:21:48;;;;;;;;;;;;;;;31.36;16.78;100574.72;5097907;28;953;-30
2021/01/17 01:24:14;;;;;;;;;;;;;;;31.31;16.69;100569.09;5079192;28;1178;-31
2021/01/17 01:26:40;;;;;;;;;;;;;;;31.39;16.92;100567.00;5078592;28;866;-30
2021/01/17 01:29:05;;;;;;;;;;;;;;;31.45;16.58;100565.28;5079208;28;760;-34
2021/01/17 01:31:30;;;;;;;;;;;;;;;31.43;16.72;100577.44;5079118;28;775;-29
2021/01/17 01:33:56;;;;;;;;;;;;;;;30.78;17.10;100572.59;5078263;28;732;-37
2021/01/17 01:36:21;;;;;;;;;;;;;;;30.10;17.63;100571.78;5078777;28;1979;-33
2021/01/17 01:38:47;;;;;;;;;;;;;;;30.59;17.29;100563.44;5096184;28;965;-31
2021/01/17 01:41:13;;;;;;;;;;;;;;;30.48;17.56;100580.38;5098394;28;903;-31
2021/01/17 01:43:38;;;;;;;;;;;;;;;30.59;17.34;100571.59;5098782;28;806;-29
2021/01/17 01:46:03;;;;;;;;;;;;;;;30.73;17.53;100577.81;5098749;28;856;-30
2021/01/17 01:48:30;;;;;;;;;;;;;;;31.02;17.04;100570.25;5098797;28;755;-29
2021/01/17 01:50:55;;;;;;;;;;;;;;;30.94;17.19;100572.38;5099049;28;835;-31
2021/01/17 01:53:20;;;;;;;;;;;;;;;30.12;18.15;100571.56;5098398;28;922;-33
2021/01/17 01:55:46;;;;;;;;;;;;;;;30.04;18.16;100578.06;5098636;28;827;-34
2021/01/17 01:58:11;;;;;;;;;;;;;;;30.34;18.00;100572.25;5097566;28;1905;-30
2021/01/17 02:00:36;;;;;;;;;;;;;;;30.48;17.59;100575.78;5098765;28;770;-34
2021/01/17 02:03:02;;;;;;;;;;;;;;;30.58;17.54;100585.38;5098144;28;862;-30
2021/01/17 02:05:27;;;;;;;;;;;;;;;30.89;17.29;100579.28;5098292;28;818;-33
2021/01/17 02:08:11;;;;;;;;;;;;;;;30.83;17.33;100574.69;5098084;28;1000;-31
2021/01/17 02:10:36;;;;;;;;;;;;;;;30.41;17.45;100585.81;5098588;28;747;-27
2021/01/17 02:13:04;;;;;;;;;;;;;;;30.04;17.07;100581.59;5098381;28;795;-28
2021/01/17 02:15:33;;;;;;;;;;;;;;;30.10;16.72;100585.34;5097015;28;815;-29
2021/01/17 02:18:02;;;;;;;;;;;;;;;30.04;16.78;100588.91;5098134;28;1965;-29
2021/01/17 02:20:28;;;;;;;;;;;;;;;30.06;15.88;100589.53;5098484;28;837;-32
2021/01/17 02:22:59;;;;;;;;;;;;;;;30.14;16.14;100594.75;5086339;28;953;-27
2021/01/17 02:25:24;;;;;;;;;;;;;;;29.83;15.33;100588.00;5077618;28;1071;-29
2021/01/17 02:27:50;;;;;;;;;;;;;;;29.92;15.25;100592.22;5078094;28;755;-27
2021/01/17 02:30:15;;;;;;;;;;;;;;;30.04;14.88;100602.47;5076206;28;1238;-34
2021/01/17 02:32:45;;;;;;;;;;;;;;;29.82;14.84;100594.50;5076010;28;808;-29
2021/01/17 02:35:10;;;;;;;;;;;;;;;29.88;14.65;100599.09;5076701;28;831;-28
2021/01/17 02:37:40;;;;;;;;;;;;;;;29.86;14.16;100598.47;5084619;28;1965;-32
2021/01/17 02:40:06;;;;;;;;;;;;;;;30.37;14.14;100608.97;5096417;28;821;-34
2021/01/17 02:42:31;;;;;;;;;;;;;;;30.67;14.33;100620.25;5096709;28;780;-38
2021/01/17 02:44:57;;;;;;;;;;;;;;;30.98;14.33;100617.91;5097819;28;749;-36
2021/01/17 02:47:23;;;;;;;;;;;;;;;30.98;14.42;100619.81;5096519;28;842;-33
2021/01/17 02:49:48;;;;;;;;;;;;;;;31.03;14.49;100614.56;5097874;28;770;-34
2021/01/17 02:52:13;;;;;;;;;;;;;;;31.23;14.61;100628.06;5097470;28;1005;-27
2021/01/17 02:54:39;;;;;;;;;;;;;;;31.15;14.87;100639.16;5097502;28;775;-36
2021/01/17 02:57:04;;;;;;;;;;;;;;;31.28;14.67;100643.75;5097855;28;1961;-35
2021/01/17 02:59:32;;;;;;;;;;;;;;;31.35;14.79;100643.69;5097653;28;778;-34
2021/01/17 03:01:57;;;;;;;;;;;;;;;31.29;15.10;100645.41;5096126;28;783;-34
2021/01/17 03:04:28;;;;;;;;;;;;;;;31.33;15.00;100637.66;5096636;28;767;-32
2021/01/17 03:06:53;;;;;;;;;;;;;;;31.24;15.36;100639.78;5096107;28;989;-30
2021/01/17 03:09:19;;;;;;;;;;;;;;;30.36;16.25;100646.16;5095681;28;835;-33
2021/01/17 03:11:44;;;;;;;;;;;;;;;30.17;16.42;100656.72;5097317;28;882;-29
2021/01/17 03:14:09;;;;;;;;;;;;;;;30.63;16.21;100667.03;5097395;28;847;-30
2021/01/17 03:16:35;;;;;;;;;;;;;;;30.62;16.12;100659.91;5097145;28;1902;-34
2021/01/17 03:19:00;;;;;;;;;;;;;;;30.67;16.21;100657.41;5096813;28;1138;-33
2021/01/17 03:21:25;;;;;;;;;;;;;;;30.56;16.12;100661.59;5096968;28;681;-35
2021/01/17 03:23:50;;;;;;;;;;;;;;;30.41;16.32;100659.91;5078645;28;942;-36
2021/01/17 03:26:16;;;;;;;;;;;;;;;30.40;16.53;100660.13;5076432;28;1306;-31
2021/01/17 03:28:41;;;;;;;;;;;;;;;29.63;17.08;100659.28;5077063;28;756;-31
2021/01/17 03:31:06;;;;;;;;;;;;;;;29.23;17.64;100659.91;5076966;28;772;-29
2021/01/17 03:33:32;;;;;;;;;;;;;;;29.97;17.07;100662.13;5076754;28;867;-29
2021/01/17 03:35:57;;;;;;;;;;;;;;;29.98;16.99;100665.66;5076908;28;760;-28
2021/01/17 03:38:22;;;;;;;;;;;;;;;29.07;18.01;100678.16;5090658;28;1914;-27
2021/01/17 03:40:47;;;;;;;;;;;;;;;29.21;18.28;100665.50;5097182;28;779;-35
2021/01/17 03:43:13;;;;;;;;;;;;;;;29.89;17.20;100673.16;5096765;28;680;-32
2021/01/17 03:45:38;;;;;;;;;;;;;;;30.09;17.33;100669.66;5096918;28;759;-31
2021/01/17 03:48:04;;;;;;;;;;;;;;;30.24;16.86;100673.06;5096650;28;830;-31
2021/01/17 03:50:29;;;;;;;;;;;;;;;30.09;17.15;100675.91;5097407;28;766;-26
2021/01/17 03:52:54;;;;;;;;;;;;;;;29.86;17.42;100668.13;5096427;28;1028;-26
2021/01/17 03:55:19;;;;;;;;;;;;;;;29.69;17.92;100671.22;5096632;28;870;-27
2021/01/17 03:57:45;;;;;;;;;;;;;;;29.75;17.77;100672.25;5096937;28;1906;-28
2021/01/17 04:00:10;;;;;;;;;;;;;;;29.81;17.25;100679.59;5096915;28;842;-33
2021/01/17 04:02:35;;;;;;;;;;;;;;;29.72;17.05;100676.22;5096766;28;703;-31
2021/01/17 04:05:01;;;;;;;;;;;;;;;29.67;17.14;100673.28;5096926;28;807;-32
2021/01/17 04:07:29;;;;;;;;;;;;;;;19.31;16.97;100654.50;5096440;28;1076;-31
2021/01/17 04:09:54;;;;;;;;;;;;;;;24.99;15.36;100663.16;5096539;28;851;-32
2021/01/17 04:12:19;;;;;;;;;;;;;;;23.92;10.89;100674.44;5096332;28;917;-32
2021/01/17 04:14:45;;;;;;;;;;;;;;;19.38;12.64;100665.50;5096666;28;747;-34
2021/01/17 04:17:10;;;;;;;;;;;;;;;17.95;14.69;100660.25;5096048;28;1973;-35
2021/01/17 04:19:35;;;;;;;;;;;;;;;24.90;13.33;100668.56;5096602;28;795;-31
2021/01/17 04:22:00;;;;;;;;;;;;;;;26.65;12.04;100669.63;5096194;28;1042;-26
2021/01/17 04:24:26;;;;;;;;;;;;;;;27.24;11.91;100678.03;5079938;28;1175;-33
2021/01/17 04:26:57;;;;;;;;;;;;;;;27.55;12.09;100673.44;5079803;28;814;-28
2021/01/17 04:29:23;;;;;;;;;;;;;;;27.83;11.69;100670.94;5080715;28;715;-35
2021/01/17 04:31:48;;;;;;;;;;;;;;;27.28;11.09;100668.53;5079523;28;844;-32
2021/01/17 04:34:13;;;;;;;;;;;;;;;27.07;9.83;100680.91;5080060;28;827;-31
2021/01/17 04:36:38;;;;;;;;;;;;;;;27.31;10.03;100673.56;5080081;28;1910;-34
2021/01/17 04:39:04;;;;;;;;;;;;;;;27.73;10.16;100675.78;5099857;28;1006;-30
2021/01/17 04:41:29;;;;;;;;;;;;;;;27.97;10.38;100671.94;5100809;28;735;-35
2021/01/17 04:43:56;;;;;;;;;;;;;;;27.93;10.47;100683.28;5098919;28;867;-34
2021/01/17 04:46:21;;;;;;;;;;;;;;;28.01;10.30;100685.06;5099822;28;829;-35
2021/01/17 04:48:46;;;;;;;;;;;;;;;27.60;9.69;100692.66;5098987;28;743;-27
2021/01/17 04:51:12;;;;;;;;;;;;;;;27.00;9.78;100679.94;5100125;28;886;-30
2021/01/17 04:53:37;;;;;;;;;;;;;;;27.05;8.85;100688.34;5098290;28;1107;-28
2021/01/17 04:56:17;;;;;;;;;;;;;;;27.12;8.39;100696.56;5100206;28;739;-33
2021/01/17 04:58:43;;;;;;;;;;;;;;;26.91;8.58;100687.25;5098252;28;1312;-30
2021/01/17 05:01:09;;;;;;;;;;;;;;;27.05;8.50;100682.09;5092159;28;1046;-31
2021/01/17 05:03:37;;;;;;;;;;;;;;;26.76;8.59;100677.28;5096228;28;1362;-31
2021/01/17 05:06:10;;;;;;;;;;;;;;;25.07;9.56;100687.38;5085745;28;1282;-33
2021/01/17 05:08:36;;;;;;;;;;;;;;;25.73;10.76;100689.06;5094062;28;951;-34
2021/01/17 05:11:05;;;;;;;;;;;;;;;26.37;11.82;100702.56;5098360;28;763;-34
2021/01/17 05:13:33;;;;;;;;;;;;;;;26.61;12.13;100698.81;5099715;28;747;-31
2021/01/17 05:15:58;;;;;;;;;;;;;;;26.54;12.91;100703.28;5099064;28;791;-30
2021/01/17 05:18:23;;;;;;;;;;;;;;;26.98;13.76;100700.88;5098402;28;1971;-32
2021/01/17 05:20:49;;;;;;;;;;;;;;;26.99;14.22;100705.25;5092079;28;883;-34
2021/01/17 05:23:14;;;;;;;;;;;;;;;27.21;14.60;100708.13;5094885;28;1065;-34
2021/01/17 05:25:40;;;;;;;;;;;;;;;27.35;14.69;100710.00;5097886;28;1051;-34
2021/01/17 05:28:05;;;;;;;;;;;;;;;27.20;15.11;100714.53;5097698;28;862;-34
2021/01/17 05:30:30;;;;;;;;;;;;;;;27.62;14.85;100710.38;5098774;28;849;-28
2021/01/17 05:32:55;;;;;;;;;;;;;;;28.13;14.48;100718.69;5098237;28;787;-33
2021/01/17 05:35:22;;;;;;;;;;;;;;;28.02;15.11;100714.63;5098436;28;831;-33
2021/01/17 05:37:50;;;;;;;;;;;;;;;28.46;14.46;100706.59;5088869;28;1979;-32
2021/01/17 05:40:16;;;;;;;;;;;;;;;28.31;15.15;100709.31;5079030;28;751;-26
2021/01/17 05:42:42;;;;;;;;;;;;;;;28.32;15.01;100713.69;5078847;28;731;-32
2021/01/17 05:45:16;;;;;;;;;;;;;;;28.66;14.91;100716.75;5078192;28;858;-33
2021/01/17 05:47:42;;;;;;;;;;;;;;;28.68;15.54;100710.09;5078831;28;833;-35
2021/01/17 05:50:11;;;;;;;;;;;;;;;28.76;15.47;100716.41;5078551;28;751;-30
2021/01/17 05:52:37;;;;;;;;;;;;;;;27.70;16.50;100714.00;5086163;28;1005;-33
2021/01/17 05:55:02;;;;;;;;;;;;;;;28.60;15.56;100719.19;5098803;28;866;-34
2021/01/17 05:57:28;;;;;;;;;;;;;;;28.76;15.67;100721.84;5098737;28;1963;-36
2021/01/17 05:59:53;;;;;;;;;;;;;;;28.78;15.51;100717.88;5096712;28;1136;-33
2021/01/17 06:02:19;;;;;;;;;;;;;;;28.85;15.62;100715.22;5097945;28;775;-34
2021/01/17 06:04:47;;;;;;;;;;;;;;;28.72;15.74;100716.81;5098599;28;822;-32
2021/01/17 06:07:12;;;;;;;;;;;;;;;28.83;16.06;100711.88;5097975;28;949;-33
2021/01/17 06:09:38;;;;;;;;;;;;;;;28.95;15.82;100717.59;5097290;28;828;-32
2021/01/17 06:12:03;;;;;;;;;;;;;;;28.57;16.57;100721.44;5098536;28;738;-33
2021/01/17 06:14:29;;;;;;;;;;;;;;;29.12;15.75;100714.63;5098485;28;735;-32
2021/01/17 06:16:58;;;;;;;;;;;;;;;29.16;15.96;100727.56;5097797;28;1906;-34
2021/01/17 06:19:29;;;;;;;;;;;;;;;28.93;16.45;100733.19;5098497;28;779;-34
2021/01/17 06:21:54;;;;;;;;;;;;;;;29.28;16.09;100733.28;5095660;28;922;-33
2021/01/17 06:24:31;;;;;;;;;;;;;;;29.44;16.01;100737.56;5076755;28;1386;-34
2021/01/17 06:26:56;;;;;;;;;;;;;;;29.50;16.13;100740.50;5076693;28;835;-35
2021/01/17 06:29:21;;;;;;;;;;;;;;;29.33;16.20;100743.53;5076363;28;811;-34
2021/01/17 06:31:47;;;;;;;;;;;;;;;29.32;16.15;100750.00;5076746;28;1563;-35
2021/01/17 06:34:15;;;;;;;;;;;;;;;28.92;16.62;100758.63;5076981;28;762;-27
2021/01/17 06:36:41;;;;;;;;;;;;;;;28.21;17.36;100756.44;5077332;28;1977;-33
2021/01/17 06:39:18;;;;;;;;;;;;;;;27.66;18.12;100750.53;5098096;28;775;-35
2021/01/17 06:41:44;;;;;;;;;;;;;;;28.54;17.25;100755.16;5097882;28;839;-27
2021/01/17 06:44:10;;;;;;;;;;;;;;;28.54;17.15;100757.03;5097060;28;822;-36
2021/01/17 06:46:39;;;;;;;;;;;;;;;28.58;17.14;100763.72;5098350;28;759;-31
2021/01/17 06:49:18;;;;;;;;;;;;;;;28.39;17.54;100762.47;5097702;28;735;-32
2021/01/17 06:51:43;;;;;;;;;;;;;;;28.32;17.81;100767.78;5097259;28;958;-33
2021/01/17 06:54:08;;;;;;;;;;;;;;;28.59;17.55;100773.53;5098047;28;842;-34
2021/01/17 06:56:33;;;;;;;;;;;;;;;28.51;17.72;100781.75;5096358;28;1962;-37
2021/01/17 06:58:59;;;;;;;;;;;;;;;28.71;17.45;100784.69;5096129;28;823;-37
2021/01/17 07:01:25;;;;;;;;;;;;;;;28.93;17.08;100784.66;5097618;28;810;-35
2021/01/17 07:03:51;;;;;;;;;;;;;;;28.52;17.78;100784.28;5097589;28;747;-29
2021/01/17 07:06:23;;;;;;;;;;;;;;;28.68;17.63;100791.31;5097336;28;782;-37
2021/01/17 07:08:50;;;;;;;;;;;;;;;28.28;17.89;100793.56;5097208;28;1016;-29
2021/01/17 07:11:23;;;;;;;;;;;;;;;27.83;17.57;100665.53;5095695;28;874;-27
2021/01/17 07:13:49;;;;;;;;;;;;;;;28.77;17.30;100788.47;5095631;28;852;-35
2021/01/17 07:16:20;;;;;;;;;;;;;;;27.92;18.35;100784.34;5097574;28;764;-29
2021/01/17 07:18:46;;;;;;;;;;;;;;;27.58;18.84;100792.81;5095999;28;1905;-29
2021/01/17 07:21:12;;;;;;;;;;;;;;;28.04;18.32;100788.28;5095676;28;1286;-27
2021/01/17 07:23:37;;;;;;;;;;;;;;;27.80;18.40;100784.84;5095943;28;906;-35
2021/01/17 07:26:03;;;;;;;;;;;;;;;27.56;18.75;100789.44;5095644;28;1088;-27
2021/01/17 07:28:30;;;;;;;;;;;;;;;27.65;18.57;100784.81;5095470;28;748;-35
2021/01/17 07:30:59;;;;;;;;;;;;;;;28.07;18.32;100792.47;5096756;28;802;-27
2021/01/17 07:33:25;;;;;;;;;;;;;;;28.46;17.78;100793.97;5096952;28;805;-28
2021/01/17 07:35:50;;;;;;;;;;;;;;;28.07;18.32;100804.13;5096628;28;782;-33
2021/01/17 07:38:19;;;;;;;;;;;;;;;27.82;18.85;100801.72;5096668;28;1918;-33
2021/01/17 07:40:51;;;;;;;;;;;;;;;28.30;18.23;100795.03;5097269;28;816;-28
2021/01/17 07:43:17;;;;;;;;;;;;;;;28.57;17.87;100795.38;5096157;28;870;-29
2021/01/17 07:45:42;;;;;;;;;;;;;;;28.87;17.72;100793.56;5096493;28;839;-36
2021/01/17 07:48:09;;;;;;;;;;;;;;;27.80;18.90;100784.00;5097006;28;847;-26
2021/01/17 07:50:35;;;;;;;;;;;;;;;28.73;18.04;100793.41;5096652;28;757;-30
2021/01/17 07:53:01;;;;;;;;;;;;;;;28.99;17.52;100792.03;5096440;28;993;-35
2021/01/17 07:55:26;;;;;;;;;;;;;;;29.05;17.41;100795.81;5095271;28;830;-35
2021/01/17 07:57:52;;;;;;;;;;;;;;;29.19;17.44;100797.63;5095278;28;1958;-27
2021/01/17 08:00:23;;;;;;;;;;;;;;;29.40;17.15;100795.91;5096619;28;802;-30
2021/01/17 08:02:49;;;;;;;;;;;;;;;29.61;17.07;100796.06;5096571;28;791;-38
2021/01/17 08:05:14;;;;;;;;;;;;;;;29.14;17.63;100781.13;5096454;28;804;-29
2021/01/17 08:07:39;;;;;;;;;;;;;;;28.67;18.15;100778.81;5096633;28;958;-29
2021/01/17 08:10:05;;;;;;;;;;;;;;;28.99;17.65;100789.34;5096761;28;823;-28
2021/01/17 08:12:31;;;;;;;;;;;;;;;29.39;17.45;100780.69;5095773;28;807;-35
2021/01/17 08:15:09;;;;;;;;;;;;;;;29.54;17.09;100777.88;5096365;28;810;-34
2021/01/17 08:17:35;;;;;;;;;;;;;;;29.55;17.22;100779.53;5096656;28;1905;-29
2021/01/17 08:20:01;;;;;;;;;;;;;;;29.09;17.91;100784.41;5096222;28;771;-27
2021/01/17 08:22:26;;;;;;;;;;;;;;;29.15;17.77;100779.22;5089275;28;985;-31
2021/01/17 08:24:52;;;;;;;;;;;;;;;28.81;18.04;100782.47;5075755;28;1165;-30
2021/01/17 08:27:42;;;;;;;;;;;;;;;27.68;19.45;100783.56;5075450;28;728;-37
2021/01/17 08:30:08;;;;;;;;;;;;;;;29.04;17.93;100786.88;5071136;28;1366;-35
2021/01/17 08:32:36;;;;;;;;;;;;;;;28.66;18.40;100776.28;5075846;28;743;-30
2021/01/17 08:35:20;;;;;;;;;;;;;;;29.20;17.53;100780.34;5075292;28;811;-28
2021/01/17 08:37:46;;;;;;;;;;;;;;;29.16;17.73;100780.94;5085203;28;1922;-29
2021/01/17 08:40:18;;;;;;;;;;;;;;;28.99;17.57;100778.50;5095848;28;861;-28
2021/01/17 08:42:50;;;;;;;;;;;;;;;28.61;18.16;100774.19;5095567;28;700;-35
2021/01/17 08:45:15;;;;;;;;;;;;;;;29.19;17.90;100775.97;5096462;28;846;-31
2021/01/17 08:47:40;;;;;;;;;;;;;;;28.80;18.02;100772.69;5096181;28;823;-35
2021/01/17 08:50:06;;;;;;;;;;;;;;;29.05;17.93;100769.59;5092384;28;886;-35
2021/01/17 08:52:33;;;;;;;;;;;;;;;29.02;17.99;100782.69;5095888;28;934;-31
2021/01/17 08:54:58;;;;;;;;;;;;;;;28.91;17.82;100776.72;5095614;28;775;-26
2021/01/17 08:57:35;;;;;;;;;;;;;;;28.81;17.95;100779.75;5095721;28;1969;-26
2021/01/17 09:00:00;;;;;;;;;;;;;;;29.22;17.64;100782.84;5095730;28;792;-27
2021/01/17 09:02:26;;;;;;;;;;;;;;;29.40;17.49;100781.50;5094675;28;764;-35
2021/01/17 09:04:51;;;;;;;;;;;;;;;28.89;18.17;100767.97;5095733;28;882;-29
2021/01/17 09:07:32;;;;;;;;;;;;;;;29.02;17.75;100770.00;5096276;28;1021;-37
2021/01/17 09:10:11;;;;;;;;;;;;;;;28.90;17.64;100764.22;5098210;28;788;-37
2021/01/17 09:12:37;;;;;;;;;;;;;;;29.07;17.79;100763.97;5099401;28;873;-34
2021/01/17 09:15:14;;;;;;;;;;;;;;;29.27;17.20;100758.72;5099334;28;727;-34
2021/01/17 09:17:39;;;;;;;;;;;;;;;29.14;17.66;100743.22;5098573;28;1972;-26
2021/01/17 09:20:12;;;;;;;;;;;;;;;29.15;17.42;100750.28;5099083;28;779;-33
2021/01/17 09:22:37;;;;;;;;;;;;;;;28.78;17.64;100749.56;5090721;28;977;-36
2021/01/17 09:25:02;;;;;;;;;;;;;;;28.56;18.27;100744.97;5077788;28;1225;-30
2021/01/17 09:27:28;;;;;;;;;;;;;;;28.97;17.74;100745.34;5078877;28;834;-27
2021/01/17 09:29:53;;;;;;;;;;;;;;;29.15;17.53;100739.44;5078833;28;739;-27
2021/01/17 09:32:18;;;;;;;;;;;;;;;28.95;17.47;100741.97;5077843;28;790;-26
2021/01/17 09:34:47;;;;;;;;;;;;;;;28.99;17.85;100737.03;5077966;28;593;-27
2021/01/17 09:37:15;;;;;;;;;;;;;;;29.25;17.58;100751.81;5082857;28;1918;-34
2021/01/17 09:39:45;;;;;;;;;;;;;;;29.04;17.73;100748.13;5098880;28;793;-32
2021/01/17 09:42:11;;;;;;;;;;;;;;;29.31;17.17;100748.31;5098692;28;818;-30
2021/01/17 09:44:36;;;;;;;;;;;;;;;28.88;17.78;100738.38;5098658;28;802;-31
2021/01/17 09:47:02;;;;;;;;;;;;;;;28.22;18.23;100733.78;5098797;28;819;-36
2021/01/17 09:49:28;;;;;;;;;;;;;;;28.57;17.70;100733.13;5098272;28;834;-32
2021/01/17 09:51:53;;;;;;;;;;;;;;;28.06;18.10;100729.41;5098602;28;1009;-34
2021/01/17 09:54:19;;;;;;;;;;;;;;;28.56;17.90;100730.63;5098620;28;890;-29
2021/01/17 09:56:44;;;;;;;;;;;;;;;28.39;18.00;100735.44;5098629;28;1909;-34
2021/01/17 09:59:13;;;;;;;;;;;;;;;29.05;17.38;100733.53;5098677;28;770;-30
2021/01/17 10:01:38;;;;;;;;;;;;;;;29.20;17.50;100720.75;5098819;28;727;-31
2021/01/17 10:04:03;;;;;;;;;;;;;;;29.34;16.93;100723.53;5097188;28;764;-32
2021/01/17 10:06:32;;;;;;;;;;;;;;;29.24;17.18;100715.78;5098567;28;811;-30
2021/01/17 10:08:57;;;;;;;;;;;;;;;29.39;17.23;100720.22;5098651;28;934;-35
2021/01/17 10:11:22;;;;;;;;;;;;;;;28.94;17.30;100719.50;5097727;28;727;-33
2021/01/17 10:13:48;;;;;;;;;;;;;;;28.58;17.67;100707.72;5098635;28;747;-33
2021/01/17 10:16:20;;;;;;;;;;;;;;;28.83;17.42;100707.31;5098303;28;842;-31
2021/01/17 10:18:45;;;;;;;;;;;;;;;28.53;17.80;100710.16;5097124;28;1897;-31
2021/01/17 10:21:11;;;;;;;;;;;;;;;27.50;18.98;100712.69;5098139;28;739;-27
2021/01/17 10:23:36;;;;;;;;;;;;;;;27.75;18.83;100693.50;5081633;28;992;-27
2021/01/17 10:26:01;;;;;;;;;;;;;;;28.90;17.43;100693.81;5076008;28;1216;-30
2021/01/17 10:28:27;;;;;;;;;;;;;;;28.93;17.33;100701.56;5077978;28;782;-32
2021/01/17 10:30:59;;;;;;;;;;;;;;;28.61;17.58;100703.81;5077624;28;803;-34
2021/01/17 10:33:24;;;;;;;;;;;;;;;28.21;18.13;100704.22;5077764;28;841;-34
2021/01/17 10:35:50;;;;;;;;;;;;;;;28.14;18.42;100709.56;5077933;28;814;-29
2021/01/17 10:38:16;;;;;;;;;;;;;;;27.18;19.49;100700.38;5090758;28;1905;-30
2021/01/17 10:40:41;;;;;;;;;;;;;;;27.59;19.16;100696.38;5097381;28;839;-30
2021/01/17 10:43:07;;;;;;;;;;;;;;;28.91;17.90;100694.69;5097788;28;795;-35
2021/01/17 10:45:33;;;;;;;;;;;;;;;29.04;17.41;100691.25;5097393;28;858;-31
2021/01/17 10:48:01;;;;;;;;;;;;;;;29.36;17.30;100690.81;5097640;28;799;-35
2021/01/17 10:50:26;;;;;;;;;;;;;;;28.95;17.48;100706.78;5096265;28;779;-26
2021/01/17 10:52:57;;;;;;;;;;;;;;;28.45;18.09;100699.47;5097945;28;945;-28
2021/01/17 10:55:23;;;;;;;;;;;;;;;28.43;18.04;100701.53;5097252;28;819;-30
2021/01/17 10:57:50;;;;;;;;;;;;;;;28.98;17.32;100713.72;5096686;28;1901;-33
2021/01/17 11:00:16;;;;;;;;;;;;;;;29.02;17.46;100705.00;5097557;28;775;-30
2021/01/17 11:02:41;;;;;;;;;;;;;;;29.09;17.38;100703.16;5097500;28;764;-27
2021/01/17 11:05:07;;;;;;;;;;;;;;;29.30;17.11;100700.56;5097587;28;840;-35
2021/01/17 11:07:32;;;;;;;;;;;;;;;29.23;16.87;100702.44;5097220;28;1013;-27
2021/01/17 11:09:57;;;;;;;;;;;;;;;29.20;17.41;100700.94;5097289;28;752;-34
2021/01/17 11:12:36;;;;;;;;;;;;;;;28.98;17.31;100711.00;5097347;28;747;-33
2021/01/17 11:15:11;;;;;;;;;;;;;;;28.79;17.23;100703.34;5097472;28;752;-27
2021/01/17 11:17:36;;;;;;;;;;;;;;;28.71;17.73;100709.72;5094148;28;1897;-35
2021/01/17 11:20:05;;;;;;;;;;;;;;;28.56;17.65;100703.56;5097355;28;825;-33
2021/01/17 11:22:31;;;;;;;;;;;;;;;27.78;18.44;100702.28;5095350;28;918;-28
2021/01/17 11:24:56;;;;;;;;;;;;;;;27.37;18.74;100699.00;5096681;28;1065;-34
2021/01/17 11:27:21;;;;;;;;;;;;;;;28.55;18.02;100713.53;5097008;28;865;-31
2021/01/17 11:29:48;;;;;;;;;;;;;;;28.96;17.62;100706.56;5095946;28;840;-30
2021/01/17 11:32:13;;;;;;;;;;;;;;;29.20;17.05;100696.34;5096153;28;830;-29
2021/01/17 11:34:39;;;;;;;;;;;;;;;29.05;17.29;100701.03;5096865;28;802;-28
2021/01/17 11:37:05;;;;;;;;;;;;;;;28.83;17.32;100701.03;5096510;28;1975;-27
2021/01/17 11:39:30;;;;;;;;;;;;;;;28.28;18.33;100702.41;5096828;28;794;-33
2021/01/17 11:41:56;;;;;;;;;;;;;;;28.60;17.49;100702.97;5096816;28;783;-29
2021/01/17 11:44:22;;;;;;;;;;;;;;;28.59;17.62;100700.44;5097153;28;799;-30
2021/01/17 11:46:51;;;;;;;;;;;;;;;28.56;17.71;100698.97;5097041;28;849;-25
2021/01/17 11:49:25;;;;;;;;;;;;;;;27.39;18.92;100703.19;5096718;28;759;-26
2021/01/17 11:51:51;;;;;;;;;;;;;;;28.50;17.86;100707.84;5096686;28;921;-34
2021/01/17 11:54:20;;;;;;;;;;;;;;;28.14;18.39;100711.41;5095220;28;823;-27
2021/01/17 11:56:46;;;;;;;;;;;;;;;28.73;17.86;100713.06;5096793;28;1901;-28
2021/01/17 11:59:27;;;;;;;;;;;;;;;28.93;17.65;100716.94;5096728;28;846;-27
2021/01/17 12:01:52;;;;;;;;;;;;;;;28.59;17.99;100706.69;5096104;28;851;-28
2021/01/17 12:04:21;;;;;;;;;;;;;;;28.69;17.62;100706.38;5097182;28;813;-27
2021/01/17 12:06:46;;;;;;;;;;;;;;;28.93;17.44;100706.97;5095463;28;945;-30
2021/01/17 12:09:17;;;;;;;;;;;;;;;28.76;17.69;100702.88;5096369;28;810;-28
2021/01/17 12:11:46;;;;;;;;;;;;;;;27.91;18.54;100707.00;5096771;28;740;-28
2021/01/17 12:14:20;;;;;;;;;;;;;;;28.69;17.50;100703.66;5096735;28;811;-27
2021/01/17 12:16:49;;;;;;;;;;;;;;;28.87;17.37;100707.75;5095939;28;1960;-32
2021/01/17 12:19:14;;;;;;;;;;;;;;;28.61;17.67;100703.81;5096767;28;1238;-33
2021/01/17 12:21:40;;;;;;;;;;;;;;;29.29;16.96;100704.31;5096032;28;953;-27
2021/01/17 12:24:06;;;;;;;;;;;;;;;28.61;17.71;100714.63;5075861;28;794;-26
2021/01/17 12:26:31;;;;;;;;;;;;;;;28.78;17.52;100709.75;5076221;28;1099;-32
2021/01/17 12:28:56;;;;;;;;;;;;;;;28.06;18.00;100707.78;5075937;28;784;-26
2021/01/17 12:31:22;;;;;;;;;;;;;;;28.64;17.66;100714.25;5075804;28;751;-32
2021/01/17 12:33:48;;;;;;;;;;;;;;;29.11;17.27;100708.41;5076233;28;823;-34
2021/01/17 12:36:15;;;;;;;;;;;;;;;29.33;16.91;100711.00;5076571;28;782;-28
2021/01/17 12:38:41;;;;;;;;;;;;;;;28.01;18.38;100709.41;5092719;28;1910;-30
2021/01/17 12:41:06;;;;;;;;;;;;;;;28.75;17.70;100718.28;5096059;28;851;-32
2021/01/17 12:43:32;;;;;;;;;;;;;;;29.44;17.14;100717.75;5099920;28;755;-29
2021/01/17 12:45:57;;;;;;;;;;;;;;;28.78;17.43;100719.78;5099964;28;819;-28
2021/01/17 12:48:22;;;;;;;;;;;;;;;28.65;17.74;100723.19;5099881;28;794;-29
2021/01/17 12:50:47;;;;;;;;;;;;;;;27.93;18.52;100715.72;5099711;28;1448;-26
2021/01/17 12:53:13;;;;;;;;;;;;;;;28.77;17.57;100721.63;5099281;28;958;-29